sensor_id;sensor_type;location;lat;lon;timestamp;temperature;humidity
21033;DHT22;10675;47.976;7.824;2023-07-16T00:00:01;19.80;99.90
21033;DHT22;10675;47.976;7.824;2023-07-16T00:02:26;19.60;99.90
21033;DHT22;10675;47.976;7.824;2023-07-16T00:04:52;19.50;99.90
21033;DHT22;10675;47.976;7.824;2023-07-16T00:07:17;19.30;99.90
21033;DHT22;10675;47.976;7.824;2023-07-16T00:09:44;19.30;99.90
21033;DHT22;10675;47.976;7.824;2023-07-16T00:12:09;19.20;99.90
21033;DHT22;10675;47.976;7.824;2023-07-16T00:14:35;19.10;99.90
21033;DHT22;10675;47.976;7.824;2023-07-16T00:17:00;19.10;99.90
21033;DHT22;10675;47.976;7.824;2023-07-16T00:19:26;19.00;99.90
21033;DHT22;10675;47.976;7.824;2023-07-16T00:21:51;19.00;99.90
21033;DHT22;10675;47.976;7.824;2023-07-16T00:24:17;18.90;99.90
21033;DHT22;10675;47.976;7.824;2023-07-16T00:26:42;18.80;99.90
21033;DHT22;10675;47.976;7.824;2023-07-16T00:29:08;18.80;99.90
21033;DHT22;10675;47.976;7.824;2023-07-16T00:31:34;18.70;99.90
21033;DHT22;10675;47.976;7.824;2023-07-16T00:33:59;18.60;99.90
21033;DHT22;10675;47.976;7.824;2023-07-16T00:36:25;18.60;99.90
21033;DHT22;10675;47.976;7.824;2023-07-16T00:38:50;18.60;99.90
21033;DHT22;10675;47.976;7.824;2023-07-16T00:41:16;18.50;99.90
21033;DHT22;10675;47.976;7.824;2023-07-16T00:43:42;18.50;99.90
21033;DHT22;10675;47.976;7.824;2023-07-16T00:46:08;18.50;99.90
21033;DHT22;10675;47.976;7.824;2023-07-16T00:48:34;18.50;99.90
21033;DHT22;10675;47.976;7.824;2023-07-16T00:51:01;18.50;99.90
21033;DHT22;10675;47.976;7.824;2023-07-16T00:53:28;18.40;99.90
21033;DHT22;10675;47.976;7.824;2023-07-16T00:55:53;18.20;99.90
21033;DHT22;10675;47.976;7.824;2023-07-16T00:58:19;18.20;99.90
21033;DHT22;10675;47.976;7.824;2023-07-16T01:00:45;18.10;99.90
21033;DHT22;10675;47.976;7.824;2023-07-16T01:03:12;18.10;99.90
21033;DHT22;10675;47.976;7.824;2023-07-16T01:05:54;18.00;99.90
21033;DHT22;10675;47.976;7.824;2023-07-16T01:08:32;18.00;99.90
21033;DHT22;10675;47.976;7.824;2023-07-16T01:10:59;18.10;99.90
21033;DHT22;10675;47.976;7.824;2023-07-16T01:13:25;18.20;99.90
21033;DHT22;10675;47.976;7.824;2023-07-16T01:15:51;18.10;99.90
21033;DHT22;10675;47.976;7.824;2023-07-16T01:18:17;18.10;99.90
21033;DHT22;10675;47.976;7.824;2023-07-16T01:20:43;18.20;99.90
21033;DHT22;10675;47.976;7.824;2023-07-16T01:31:12;18.10;99.90
21033;DHT22;10675;47.976;7.824;2023-07-16T01:33:41;18.10;99.90
21033;DHT22;10675;47.976;7.824;2023-07-16T01:36:07;18.10;99.90
21033;DHT22;10675;47.976;7.824;2023-07-16T01:38:34;18.10;99.90
21033;DHT22;10675;47.976;7.824;2023-07-16T01:41:00;18.10;99.90
21033;DHT22;10675;47.976;7.824;2023-07-16T01:43:25;18.10;99.90
21033;DHT22;10675;47.976;7.824;2023-07-16T01:45:51;18.10;99.90
21033;DHT22;10675;47.976;7.824;2023-07-16T01:50:55;18.10;99.90
21033;DHT22;10675;47.976;7.824;2023-07-16T01:53:20;18.00;99.90
21033;DHT22;10675;47.976;7.824;2023-07-16T01:55:46;17.90;99.90
21033;DHT22;10675;47.976;7.824;2023-07-16T01:58:11;17.80;99.90
21033;DHT22;10675;47.976;7.824;2023-07-16T02:00:37;17.80;99.90
21033;DHT22;10675;47.976;7.824;2023-07-16T02:03:02;17.70;99.90
21033;DHT22;10675;47.976;7.824;2023-07-16T02:05:28;17.60;99.90
21033;DHT22;10675;47.976;7.824;2023-07-16T02:07:53;17.60;99.90
21033;DHT22;10675;47.976;7.824;2023-07-16T02:10:19;17.40;99.90
21033;DHT22;10675;47.976;7.824;2023-07-16T02:12:45;17.40;99.90
21033;DHT22;10675;47.976;7.824;2023-07-16T02:15:10;17.40;99.90
21033;DHT22;10675;47.976;7.824;2023-07-16T02:17:36;17.40;99.90
21033;DHT22;10675;47.976;7.824;2023-07-16T02:20:02;17.50;99.90
21033;DHT22;10675;47.976;7.824;2023-07-16T02:22:30;17.40;99.90
21033;DHT22;10675;47.976;7.824;2023-07-16T02:24:56;17.40;99.90
21033;DHT22;10675;47.976;7.824;2023-07-16T02:27:21;17.30;99.90
21033;DHT22;10675;47.976;7.824;2023-07-16T02:29:47;17.40;99.90
21033;DHT22;10675;47.976;7.824;2023-07-16T02:32:12;17.30;99.90
21033;DHT22;10675;47.976;7.824;2023-07-16T02:34:38;17.30;99.90
21033;DHT22;10675;47.976;7.824;2023-07-16T02:37:04;17.30;99.90
21033;DHT22;10675;47.976;7.824;2023-07-16T02:39:29;17.40;99.90
21033;DHT22;10675;47.976;7.824;2023-07-16T02:41:55;17.40;99.90
21033;DHT22;10675;47.976;7.824;2023-07-16T02:44:20;17.50;99.90
21033;DHT22;10675;47.976;7.824;2023-07-16T02:46:46;17.60;99.90
21033;DHT22;10675;47.976;7.824;2023-07-16T02:49:11;17.50;99.90
21033;DHT22;10675;47.976;7.824;2023-07-16T02:51:37;17.50;99.90
21033;DHT22;10675;47.976;7.824;2023-07-16T02:54:02;17.60;99.90
21033;DHT22;10675;47.976;7.824;2023-07-16T02:56:28;17.60;99.90
21033;DHT22;10675;47.976;7.824;2023-07-16T02:58:53;17.60;99.90
21033;DHT22;10675;47.976;7.824;2023-07-16T03:01:19;17.50;99.90
21033;DHT22;10675;47.976;7.824;2023-07-16T03:03:45;17.50;99.90
21033;DHT22;10675;47.976;7.824;2023-07-16T03:06:10;17.50;99.90
21033;DHT22;10675;47.976;7.824;2023-07-16T03:08:36;17.50;99.90
21033;DHT22;10675;47.976;7.824;2023-07-16T03:11:01;17.40;99.90
21033;DHT22;10675;47.976;7.824;2023-07-16T03:13:27;17.40;99.90
21033;DHT22;10675;47.976;7.824;2023-07-16T03:15:52;17.30;99.90
21033;DHT22;10675;47.976;7.824;2023-07-16T03:18:18;17.20;99.90
21033;DHT22;10675;47.976;7.824;2023-07-16T03:20:44;17.20;99.90
21033;DHT22;10675;47.976;7.824;2023-07-16T03:23:10;17.20;99.90
21033;DHT22;10675;47.976;7.824;2023-07-16T03:25:35;17.10;99.90
21033;DHT22;10675;47.976;7.824;2023-07-16T03:28:01;17.00;99.90
21033;DHT22;10675;47.976;7.824;2023-07-16T03:30:26;17.00;99.90
21033;DHT22;10675;47.976;7.824;2023-07-16T03:32:52;17.10;99.90
21033;DHT22;10675;47.976;7.824;2023-07-16T03:35:17;17.20;99.90
21033;DHT22;10675;47.976;7.824;2023-07-16T03:37:43;17.10;99.90
21033;DHT22;10675;47.976;7.824;2023-07-16T03:40:16;17.20;99.90
21033;DHT22;10675;47.976;7.824;2023-07-16T03:42:42;17.10;99.90
21033;DHT22;10675;47.976;7.824;2023-07-16T03:45:09;17.20;99.90
21033;DHT22;10675;47.976;7.824;2023-07-16T03:47:35;17.10;99.90
21033;DHT22;10675;47.976;7.824;2023-07-16T03:50:01;17.10;99.90
21033;DHT22;10675;47.976;7.824;2023-07-16T03:52:26;17.00;99.90
21033;DHT22;10675;47.976;7.824;2023-07-16T03:54:52;17.00;99.90
21033;DHT22;10675;47.976;7.824;2023-07-16T03:57:18;17.00;99.90
21033;DHT22;10675;47.976;7.824;2023-07-16T03:59:43;16.90;99.90
21033;DHT22;10675;47.976;7.824;2023-07-16T04:02:09;17.00;99.90
21033;DHT22;10675;47.976;7.824;2023-07-16T04:04:34;17.00;99.90
21033;DHT22;10675;47.976;7.824;2023-07-16T04:07:00;17.00;99.90
21033;DHT22;10675;47.976;7.824;2023-07-16T04:09:25;16.90;99.90
21033;DHT22;10675;47.976;7.824;2023-07-16T04:11:51;17.00;99.90
21033;DHT22;10675;47.976;7.824;2023-07-16T04:14:16;17.00;99.90
21033;DHT22;10675;47.976;7.824;2023-07-16T04:16:42;17.00;99.90
21033;DHT22;10675;47.976;7.824;2023-07-16T04:19:08;17.10;99.90
21033;DHT22;10675;47.976;7.824;2023-07-16T04:21:34;17.20;99.90
21033;DHT22;10675;47.976;7.824;2023-07-16T04:24:01;17.20;99.90
21033;DHT22;10675;47.976;7.824;2023-07-16T04:26:27;17.20;99.90
21033;DHT22;10675;47.976;7.824;2023-07-16T04:28:52;17.30;99.90
21033;DHT22;10675;47.976;7.824;2023-07-16T04:31:18;17.40;99.90
21033;DHT22;10675;47.976;7.824;2023-07-16T04:33:43;17.40;99.90
21033;DHT22;10675;47.976;7.824;2023-07-16T04:36:09;17.40;99.90
21033;DHT22;10675;47.976;7.824;2023-07-16T04:38:34;17.40;99.90
21033;DHT22;10675;47.976;7.824;2023-07-16T04:41:00;17.40;99.90
21033;DHT22;10675;47.976;7.824;2023-07-16T04:43:25;17.40;99.90
21033;DHT22;10675;47.976;7.824;2023-07-16T04:45:51;17.40;99.90
21033;DHT22;10675;47.976;7.824;2023-07-16T04:48:16;17.40;99.90
21033;DHT22;10675;47.976;7.824;2023-07-16T04:50:42;17.40;99.90
21033;DHT22;10675;47.976;7.824;2023-07-16T04:53:07;17.40;99.90
21033;DHT22;10675;47.976;7.824;2023-07-16T04:55:37;17.40;99.90
21033;DHT22;10675;47.976;7.824;2023-07-16T04:58:02;17.30;99.90
21033;DHT22;10675;47.976;7.824;2023-07-16T05:00:28;17.40;99.90
21033;DHT22;10675;47.976;7.824;2023-07-16T05:02:53;17.40;99.90
21033;DHT22;10675;47.976;7.824;2023-07-16T05:05:19;17.50;99.90
21033;DHT22;10675;47.976;7.824;2023-07-16T05:07:45;17.40;99.90
21033;DHT22;10675;47.976;7.824;2023-07-16T05:10:10;17.40;99.90
21033;DHT22;10675;47.976;7.824;2023-07-16T05:12:36;17.50;99.90
21033;DHT22;10675;47.976;7.824;2023-07-16T05:15:02;17.40;99.90
21033;DHT22;10675;47.976;7.824;2023-07-16T05:17:27;17.50;99.90
21033;DHT22;10675;47.976;7.824;2023-07-16T05:19:53;17.50;99.90
21033;DHT22;10675;47.976;7.824;2023-07-16T05:22:18;17.50;99.90
21033;DHT22;10675;47.976;7.824;2023-07-16T05:24:44;17.60;99.90
21033;DHT22;10675;47.976;7.824;2023-07-16T05:27:10;17.60;99.90
21033;DHT22;10675;47.976;7.824;2023-07-16T05:29:35;17.60;99.90
21033;DHT22;10675;47.976;7.824;2023-07-16T05:32:01;17.60;99.90
21033;DHT22;10675;47.976;7.824;2023-07-16T05:34:26;17.60;99.90
21033;DHT22;10675;47.976;7.824;2023-07-16T05:36:55;17.70;99.90
21033;DHT22;10675;47.976;7.824;2023-07-16T05:39:22;17.70;99.90
21033;DHT22;10675;47.976;7.824;2023-07-16T05:41:47;17.60;99.90
21033;DHT22;10675;47.976;7.824;2023-07-16T05:44:13;17.60;99.90
21033;DHT22;10675;47.976;7.824;2023-07-16T05:46:39;17.60;99.90
21033;DHT22;10675;47.976;7.824;2023-07-16T05:49:05;17.70;99.90
21033;DHT22;10675;47.976;7.824;2023-07-16T05:51:30;17.70;99.90
21033;DHT22;10675;47.976;7.824;2023-07-16T05:53:56;17.80;99.90
21033;DHT22;10675;47.976;7.824;2023-07-16T05:56:21;17.90;99.90
21033;DHT22;10675;47.976;7.824;2023-07-16T05:58:47;17.80;99.90
21033;DHT22;10675;47.976;7.824;2023-07-16T06:01:12;18.00;99.90
21033;DHT22;10675;47.976;7.824;2023-07-16T06:03:38;18.10;99.90
21033;DHT22;10675;47.976;7.824;2023-07-16T06:06:03;18.30;99.90
21033;DHT22;10675;47.976;7.824;2023-07-16T06:08:29;18.50;99.90
21033;DHT22;10675;47.976;7.824;2023-07-16T06:10:55;18.60;99.90
21033;DHT22;10675;47.976;7.824;2023-07-16T06:13:20;18.90;99.90
21033;DHT22;10675;47.976;7.824;2023-07-16T06:15:47;19.00;99.90
21033;DHT22;10675;47.976;7.824;2023-07-16T06:18:13;19.00;99.90
21033;DHT22;10675;47.976;7.824;2023-07-16T06:20:38;19.10;99.90
21033;DHT22;10675;47.976;7.824;2023-07-16T06:23:04;19.20;99.90
21033;DHT22;10675;47.976;7.824;2023-07-16T06:25:29;19.30;99.90
21033;DHT22;10675;47.976;7.824;2023-07-16T06:27:55;19.40;99.90
21033;DHT22;10675;47.976;7.824;2023-07-16T06:30:21;19.30;99.90
21033;DHT22;10675;47.976;7.824;2023-07-16T06:32:47;19.30;99.90
21033;DHT22;10675;47.976;7.824;2023-07-16T06:35:13;19.30;99.90
21033;DHT22;10675;47.976;7.824;2023-07-16T06:37:38;19.40;99.90
21033;DHT22;10675;47.976;7.824;2023-07-16T06:40:04;19.60;99.90
21033;DHT22;10675;47.976;7.824;2023-07-16T06:42:30;19.60;99.90
21033;DHT22;10675;47.976;7.824;2023-07-16T06:44:56;19.80;99.90
21033;DHT22;10675;47.976;7.824;2023-07-16T06:47:22;19.80;99.90
21033;DHT22;10675;47.976;7.824;2023-07-16T06:49:47;19.80;99.90
21033;DHT22;10675;47.976;7.824;2023-07-16T06:52:23;19.70;99.90
21033;DHT22;10675;47.976;7.824;2023-07-16T06:54:49;19.90;99.90
21033;DHT22;10675;47.976;7.824;2023-07-16T06:57:15;20.00;99.90
21033;DHT22;10675;47.976;7.824;2023-07-16T06:59:41;19.90;99.90
21033;DHT22;10675;47.976;7.824;2023-07-16T07:02:06;20.10;99.90
21033;DHT22;10675;47.976;7.824;2023-07-16T07:04:32;20.30;99.90
21033;DHT22;10675;47.976;7.824;2023-07-16T07:06:57;20.30;99.90
21033;DHT22;10675;47.976;7.824;2023-07-16T07:09:23;20.50;99.90
21033;DHT22;10675;47.976;7.824;2023-07-16T07:11:48;20.50;99.90
21033;DHT22;10675;47.976;7.824;2023-07-16T07:14:14;20.40;99.90
21033;DHT22;10675;47.976;7.824;2023-07-16T07:16:39;20.30;99.90
21033;DHT22;10675;47.976;7.824;2023-07-16T07:19:05;20.50;99.90
21033;DHT22;10675;47.976;7.824;2023-07-16T07:21:31;20.50;99.90
21033;DHT22;10675;47.976;7.824;2023-07-16T07:23:56;20.40;99.90
21033;DHT22;10675;47.976;7.824;2023-07-16T07:26:22;20.30;99.90
21033;DHT22;10675;47.976;7.824;2023-07-16T07:28:48;20.10;99.90
21033;DHT22;10675;47.976;7.824;2023-07-16T07:31:13;20.30;99.90
21033;DHT22;10675;47.976;7.824;2023-07-16T07:33:39;20.40;99.90
21033;DHT22;10675;47.976;7.824;2023-07-16T07:36:05;20.40;99.90
21033;DHT22;10675;47.976;7.824;2023-07-16T07:38:30;20.20;99.90
21033;DHT22;10675;47.976;7.824;2023-07-16T07:40:56;20.30;99.90
21033;DHT22;10675;47.976;7.824;2023-07-16T07:43:21;20.40;99.90
21033;DHT22;10675;47.976;7.824;2023-07-16T07:45:47;20.60;99.90
21033;DHT22;10675;47.976;7.824;2023-07-16T07:48:12;20.60;99.90
21033;DHT22;10675;47.976;7.824;2023-07-16T07:50:38;20.60;99.90
21033;DHT22;10675;47.976;7.824;2023-07-16T07:53:04;20.50;99.90
21033;DHT22;10675;47.976;7.824;2023-07-16T07:55:30;20.30;99.90
21033;DHT22;10675;47.976;7.824;2023-07-16T07:57:55;20.20;99.90
21033;DHT22;10675;47.976;7.824;2023-07-16T08:00:21;20.40;99.90
21033;DHT22;10675;47.976;7.824;2023-07-16T08:02:47;20.60;99.90
21033;DHT22;10675;47.976;7.824;2023-07-16T08:05:12;21.00;99.90
21033;DHT22;10675;47.976;7.824;2023-07-16T08:07:38;21.00;99.90
21033;DHT22;10675;47.976;7.824;2023-07-16T08:10:04;21.10;99.90
21033;DHT22;10675;47.976;7.824;2023-07-16T08:12:29;21.40;99.90
21033;DHT22;10675;47.976;7.824;2023-07-16T08:14:56;21.50;99.90
21033;DHT22;10675;47.976;7.824;2023-07-16T08:17:22;21.60;99.90
21033;DHT22;10675;47.976;7.824;2023-07-16T08:19:47;21.80;99.90
21033;DHT22;10675;47.976;7.824;2023-07-16T08:22:13;22.00;99.50
21033;DHT22;10675;47.976;7.824;2023-07-16T08:24:38;21.70;99.30
21033;DHT22;10675;47.976;7.824;2023-07-16T08:27:04;21.50;99.00
21033;DHT22;10675;47.976;7.824;2023-07-16T08:29:30;21.30;99.50
21033;DHT22;10675;47.976;7.824;2023-07-16T08:31:55;21.20;99.60
21033;DHT22;10675;47.976;7.824;2023-07-16T08:34:21;21.20;99.60
21033;DHT22;10675;47.976;7.824;2023-07-16T08:36:46;21.10;99.40
21033;DHT22;10675;47.976;7.824;2023-07-16T08:39:12;21.00;98.70
21033;DHT22;10675;47.976;7.824;2023-07-16T08:41:38;21.10;98.90
21033;DHT22;10675;47.976;7.824;2023-07-16T08:44:04;21.40;99.80
21033;DHT22;10675;47.976;7.824;2023-07-16T08:46:30;21.50;97.60
21033;DHT22;10675;47.976;7.824;2023-07-16T08:48:56;21.50;97.70
21033;DHT22;10675;47.976;7.824;2023-07-16T08:51:23;21.40;96.50
21033;DHT22;10675;47.976;7.824;2023-07-16T08:53:50;21.60;96.90
21033;DHT22;10675;47.976;7.824;2023-07-16T08:56:15;21.80;97.00
21033;DHT22;10675;47.976;7.824;2023-07-16T08:58:43;21.80;96.70
21033;DHT22;10675;47.976;7.824;2023-07-16T09:01:10;21.70;95.10
21033;DHT22;10675;47.976;7.824;2023-07-16T09:03:38;21.70;94.60
21033;DHT22;10675;47.976;7.824;2023-07-16T09:06:04;21.50;93.90
21033;DHT22;10675;47.976;7.824;2023-07-16T09:08:29;21.40;94.30
21033;DHT22;10675;47.976;7.824;2023-07-16T09:10:56;21.60;94.90
21033;DHT22;10675;47.976;7.824;2023-07-16T09:13:22;21.80;93.30
21033;DHT22;10675;47.976;7.824;2023-07-16T09:15:52;21.60;92.70
21033;DHT22;10675;47.976;7.824;2023-07-16T09:18:23;21.60;93.30
21033;DHT22;10675;47.976;7.824;2023-07-16T09:20:57;21.80;92.80
21033;DHT22;10675;47.976;7.824;2023-07-16T09:23:25;22.20;92.90
21033;DHT22;10675;47.976;7.824;2023-07-16T09:25:52;22.30;93.60
21033;DHT22;10675;47.976;7.824;2023-07-16T09:28:19;22.30;92.80
21033;DHT22;10675;47.976;7.824;2023-07-16T09:30:45;21.80;92.20
21033;DHT22;10675;47.976;7.824;2023-07-16T09:33:14;21.80;92.90
21033;DHT22;10675;47.976;7.824;2023-07-16T09:35:40;22.00;94.10
21033;DHT22;10675;47.976;7.824;2023-07-16T09:38:08;21.90;93.70
21033;DHT22;10675;47.976;7.824;2023-07-16T09:40:35;22.00;92.70
21033;DHT22;10675;47.976;7.824;2023-07-16T09:43:01;22.20;92.70
21033;DHT22;10675;47.976;7.824;2023-07-16T09:45:27;22.80;93.20
21033;DHT22;10675;47.976;7.824;2023-07-16T09:47:53;22.60;92.00
21033;DHT22;10675;47.976;7.824;2023-07-16T09:50:19;22.50;92.00
21033;DHT22;10675;47.976;7.824;2023-07-16T09:52:46;22.30;91.70
21033;DHT22;10675;47.976;7.824;2023-07-16T09:55:13;22.60;92.70
21033;DHT22;10675;47.976;7.824;2023-07-16T09:57:42;22.50;92.10
21033;DHT22;10675;47.976;7.824;2023-07-16T10:00:12;22.20;92.40
21033;DHT22;10675;47.976;7.824;2023-07-16T10:02:39;22.20;91.40
21033;DHT22;10675;47.976;7.824;2023-07-16T10:05:13;22.00;91.50
21033;DHT22;10675;47.976;7.824;2023-07-16T10:07:40;21.90;92.10
21033;DHT22;10675;47.976;7.824;2023-07-16T10:10:10;22.00;91.80
21033;DHT22;10675;47.976;7.824;2023-07-16T10:12:36;22.00;91.80
21033;DHT22;10675;47.976;7.824;2023-07-16T10:15:04;22.00;92.00
21033;DHT22;10675;47.976;7.824;2023-07-16T10:17:31;22.00;92.30
21033;DHT22;10675;47.976;7.824;2023-07-16T10:19:59;21.80;90.50
21033;DHT22;10675;47.976;7.824;2023-07-16T10:22:37;21.80;91.10
21033;DHT22;10675;47.976;7.824;2023-07-16T10:25:05;22.40;91.10
21033;DHT22;10675;47.976;7.824;2023-07-16T10:27:33;22.30;90.80
21033;DHT22;10675;47.976;7.824;2023-07-16T10:30:00;22.80;90.40
21033;DHT22;10675;47.976;7.824;2023-07-16T10:32:29;23.20;90.00
21033;DHT22;10675;47.976;7.824;2023-07-16T10:34:56;23.40;90.50
21033;DHT22;10675;47.976;7.824;2023-07-16T10:37:22;23.60;87.40
21033;DHT22;10675;47.976;7.824;2023-07-16T10:39:49;22.70;87.90
21033;DHT22;10675;47.976;7.824;2023-07-16T10:42:22;22.30;89.40
21033;DHT22;10675;47.976;7.824;2023-07-16T10:44:52;22.20;90.60
21033;DHT22;10675;47.976;7.824;2023-07-16T10:47:19;22.20;90.40
21033;DHT22;10675;47.976;7.824;2023-07-16T10:49:46;22.40;90.80
21033;DHT22;10675;47.976;7.824;2023-07-16T10:52:12;22.80;91.70
21033;DHT22;10675;47.976;7.824;2023-07-16T10:54:38;23.00;90.70
21033;DHT22;10675;47.976;7.824;2023-07-16T10:57:05;23.30;90.70
21033;DHT22;10675;47.976;7.824;2023-07-16T10:59:30;23.30;90.30
21033;DHT22;10675;47.976;7.824;2023-07-16T11:01:56;23.20;90.50
21033;DHT22;10675;47.976;7.824;2023-07-16T11:04:21;23.40;90.80
21033;DHT22;10675;47.976;7.824;2023-07-16T11:06:50;23.50;89.90
21033;DHT22;10675;47.976;7.824;2023-07-16T11:09:15;23.20;89.60
21033;DHT22;10675;47.976;7.824;2023-07-16T11:11:41;23.00;90.50
21033;DHT22;10675;47.976;7.824;2023-07-16T11:14:09;22.90;89.80
21033;DHT22;10675;47.976;7.824;2023-07-16T11:16:38;23.00;88.30
21033;DHT22;10675;47.976;7.824;2023-07-16T11:19:05;22.80;88.60
21033;DHT22;10675;47.976;7.824;2023-07-16T11:21:33;23.00;90.90
21033;DHT22;10675;47.976;7.824;2023-07-16T11:24:14;23.10;87.50
21033;DHT22;10675;47.976;7.824;2023-07-16T11:26:52;23.20;89.60
21033;DHT22;10675;47.976;7.824;2023-07-16T11:29:18;22.80;87.50
21033;DHT22;10675;47.976;7.824;2023-07-16T11:31:43;22.70;87.50
21033;DHT22;10675;47.976;7.824;2023-07-16T11:34:15;22.90;88.60
21033;DHT22;10675;47.976;7.824;2023-07-16T11:36:41;23.30;86.10
21033;DHT22;10675;47.976;7.824;2023-07-16T11:39:07;23.90;86.10
21033;DHT22;10675;47.976;7.824;2023-07-16T11:41:32;23.90;85.70
21033;DHT22;10675;47.976;7.824;2023-07-16T11:44:00;24.40;85.50
21033;DHT22;10675;47.976;7.824;2023-07-16T11:46:31;24.00;86.30
21033;DHT22;10675;47.976;7.824;2023-07-16T11:48:57;23.90;87.40
21033;DHT22;10675;47.976;7.824;2023-07-16T11:51:22;23.70;84.20
21033;DHT22;10675;47.976;7.824;2023-07-16T11:53:48;23.90;87.20
21033;DHT22;10675;47.976;7.824;2023-07-16T11:56:13;23.80;84.70
21033;DHT22;10675;47.976;7.824;2023-07-16T11:58:39;23.70;85.80
21033;DHT22;10675;47.976;7.824;2023-07-16T12:01:04;23.60;85.20
21033;DHT22;10675;47.976;7.824;2023-07-16T12:03:30;23.60;86.00
21033;DHT22;10675;47.976;7.824;2023-07-16T12:05:55;23.70;86.80
21033;DHT22;10675;47.976;7.824;2023-07-16T12:08:21;23.80;87.40
21033;DHT22;10675;47.976;7.824;2023-07-16T12:10:47;24.40;87.80
21033;DHT22;10675;47.976;7.824;2023-07-16T12:13:12;24.60;85.50
21033;DHT22;10675;47.976;7.824;2023-07-16T12:15:38;24.90;86.80
21033;DHT22;10675;47.976;7.824;2023-07-16T12:18:03;24.80;82.00
21033;DHT22;10675;47.976;7.824;2023-07-16T12:20:29;24.50;84.00
21033;DHT22;10675;47.976;7.824;2023-07-16T12:22:55;24.10;84.90
21033;DHT22;10675;47.976;7.824;2023-07-16T12:25:20;24.20;85.50
21033;DHT22;10675;47.976;7.824;2023-07-16T12:27:46;24.70;82.70
21033;DHT22;10675;47.976;7.824;2023-07-16T12:30:11;24.40;83.80
21033;DHT22;10675;47.976;7.824;2023-07-16T12:32:38;24.20;85.70
21033;DHT22;10675;47.976;7.824;2023-07-16T12:35:03;24.20;83.50
21033;DHT22;10675;47.976;7.824;2023-07-16T12:37:30;24.10;85.40
21033;DHT22;10675;47.976;7.824;2023-07-16T12:39:55;24.30;84.10
21033;DHT22;10675;47.976;7.824;2023-07-16T12:42:21;24.10;83.80
21033;DHT22;10675;47.976;7.824;2023-07-16T12:44:46;24.40;84.20
21033;DHT22;10675;47.976;7.824;2023-07-16T12:47:12;24.60;84.10
21033;DHT22;10675;47.976;7.824;2023-07-16T12:49:38;24.70;81.80
21033;DHT22;10675;47.976;7.824;2023-07-16T12:52:03;24.60;82.80
21033;DHT22;10675;47.976;7.824;2023-07-16T12:54:29;24.90;83.70
21033;DHT22;10675;47.976;7.824;2023-07-16T12:56:55;25.20;82.90
21033;DHT22;10675;47.976;7.824;2023-07-16T12:59:20;25.00;81.20
21033;DHT22;10675;47.976;7.824;2023-07-16T13:01:46;25.10;80.00
21033;DHT22;10675;47.976;7.824;2023-07-16T13:04:12;25.30;78.40
21033;DHT22;10675;47.976;7.824;2023-07-16T13:06:37;25.40;78.10
21033;DHT22;10675;47.976;7.824;2023-07-16T13:09:03;25.60;76.30
21033;DHT22;10675;47.976;7.824;2023-07-16T13:11:30;25.80;76.10
21033;DHT22;10675;47.976;7.824;2023-07-16T13:13:56;25.60;76.70
21033;DHT22;10675;47.976;7.824;2023-07-16T13:16:21;25.90;75.20
21033;DHT22;10675;47.976;7.824;2023-07-16T13:18:47;26.10;75.60
21033;DHT22;10675;47.976;7.824;2023-07-16T13:21:13;25.90;72.10
21033;DHT22;10675;47.976;7.824;2023-07-16T13:23:38;26.00;74.70
21033;DHT22;10675;47.976;7.824;2023-07-16T13:26:04;26.30;73.30
21033;DHT22;10675;47.976;7.824;2023-07-16T13:28:29;26.50;71.40
21033;DHT22;10675;47.976;7.824;2023-07-16T13:30:55;26.80;72.20
21033;DHT22;10675;47.976;7.824;2023-07-16T13:33:20;26.70;69.60
21033;DHT22;10675;47.976;7.824;2023-07-16T13:35:46;27.00;68.60
21033;DHT22;10675;47.976;7.824;2023-07-16T13:38:11;27.00;67.10
21033;DHT22;10675;47.976;7.824;2023-07-16T13:40:37;26.80;66.60
21033;DHT22;10675;47.976;7.824;2023-07-16T13:43:02;27.10;66.10
21033;DHT22;10675;47.976;7.824;2023-07-16T13:45:28;27.10;67.70
21033;DHT22;10675;47.976;7.824;2023-07-16T13:47:53;27.50;64.70
21033;DHT22;10675;47.976;7.824;2023-07-16T13:50:20;27.50;63.50
21033;DHT22;10675;47.976;7.824;2023-07-16T13:52:46;27.20;60.80
21033;DHT22;10675;47.976;7.824;2023-07-16T13:55:11;27.60;61.80
21033;DHT22;10675;47.976;7.824;2023-07-16T13:57:37;27.70;60.30
21033;DHT22;10675;47.976;7.824;2023-07-16T14:00:03;27.60;56.50
21033;DHT22;10675;47.976;7.824;2023-07-16T14:02:30;27.30;57.50
21033;DHT22;10675;47.976;7.824;2023-07-16T14:04:55;27.20;57.70
21033;DHT22;10675;47.976;7.824;2023-07-16T14:07:21;27.60;58.20
21033;DHT22;10675;47.976;7.824;2023-07-16T14:09:47;27.40;54.70
21033;DHT22;10675;47.976;7.824;2023-07-16T14:12:12;26.60;55.90
21033;DHT22;10675;47.976;7.824;2023-07-16T14:14:38;26.40;57.40
21033;DHT22;10675;47.976;7.824;2023-07-16T14:17:04;26.10;58.40
21033;DHT22;10675;47.976;7.824;2023-07-16T14:19:29;26.30;58.50
21033;DHT22;10675;47.976;7.824;2023-07-16T14:21:56;26.30;58.20
21033;DHT22;10675;47.976;7.824;2023-07-16T14:24:21;26.30;59.50
21033;DHT22;10675;47.976;7.824;2023-07-16T14:26:47;26.20;58.00
21033;DHT22;10675;47.976;7.824;2023-07-16T14:29:12;25.80;60.30
21033;DHT22;10675;47.976;7.824;2023-07-16T14:31:38;25.70;60.40
21033;DHT22;10675;47.976;7.824;2023-07-16T14:34:04;25.80;60.80
21033;DHT22;10675;47.976;7.824;2023-07-16T14:36:29;25.70;61.50
21033;DHT22;10675;47.976;7.824;2023-07-16T14:38:55;25.70;59.30
21033;DHT22;10675;47.976;7.824;2023-07-16T14:41:20;25.70;61.40
21033;DHT22;10675;47.976;7.824;2023-07-16T14:43:47;25.80;62.10
21033;DHT22;10675;47.976;7.824;2023-07-16T14:46:15;25.90;63.00
21033;DHT22;10675;47.976;7.824;2023-07-16T14:48:43;26.00;62.50
21033;DHT22;10675;47.976;7.824;2023-07-16T14:51:12;25.90;63.30
21033;DHT22;10675;47.976;7.824;2023-07-16T14:53:38;25.90;62.80
21033;DHT22;10675;47.976;7.824;2023-07-16T14:56:04;26.00;62.20
21033;DHT22;10675;47.976;7.824;2023-07-16T14:58:31;25.90;62.20
21033;DHT22;10675;47.976;7.824;2023-07-16T15:00:59;25.80;61.90
21033;DHT22;10675;47.976;7.824;2023-07-16T15:03:26;25.80;61.90
21033;DHT22;10675;47.976;7.824;2023-07-16T15:05:56;25.90;63.20
21033;DHT22;10675;47.976;7.824;2023-07-16T15:08:23;26.00;60.30
21033;DHT22;10675;47.976;7.824;2023-07-16T15:10:48;26.00;58.50
21033;DHT22;10675;47.976;7.824;2023-07-16T15:13:14;26.10;59.50
21033;DHT22;10675;47.976;7.824;2023-07-16T15:15:39;26.10;61.30
21033;DHT22;10675;47.976;7.824;2023-07-16T15:18:06;25.80;60.30
21033;DHT22;10675;47.976;7.824;2023-07-16T15:20:31;25.60;60.50
21033;DHT22;10675;47.976;7.824;2023-07-16T15:22:57;25.80;61.50
21033;DHT22;10675;47.976;7.824;2023-07-16T15:25:23;25.80;61.70
21033;DHT22;10675;47.976;7.824;2023-07-16T15:27:48;25.80;63.10
21033;DHT22;10675;47.976;7.824;2023-07-16T15:30:14;25.80;63.90
21033;DHT22;10675;47.976;7.824;2023-07-16T15:32:39;25.80;63.40